الصفحة الرئيسية
METAR-TAF:

METAR-TAF

مطار :

مطار بغداد الدولي

بغداد, العراق

دائرة عرض: 33-15-45N, خط طول: 44-14-04E, ارتفاع: 35 متر

مراقبة الطقس الحالي

تاريخ ووقت الإصدار 55 دقيقة قبل الساعة 01:00UTC
ريح 4 عقدة من الشمال/الشمال الغربي
درجة الحرارة 25°درجة مئوية
الرطوبة 41%
ضغط 1013 hPa
الرؤية 10 كم أو أكثر
غيوم مفككة على ارتفاع 3000 قدم

METAR: ORBI 170100Z 33004KT 9999 BKN030 25/11 Q1013 NOSIG

زمن: 04:55 (01:55 UTC)

توقعات

تاريخ ووقت الإصدار 3ساعات و 55 دقيقة قبل الساعة 22:00UTC
التوقعات صالحة من17 الساعة 00 UTC إلى 17 الساعة 24 UTC
ريح 8 عقدة من الشرق/الجنوب الشرقي
الرؤية: 6000 متر
غيوم متفرقة على ارتفاع 4000 قدم
غيوم متفرقة على ارتفاع 7000 قدم

TAF: ORBI 162200Z 1700/1724 12008KT 6000 SCT040 SCT070

أرصاد الطقس والتوقعات من أكثر من 4000 مطار (تقارير الطقس للمطار METAR والتنبؤ بالطقس بالمطارTAF).

المحطات المتاحة هي النقط الصفراء والحمراء على الخريطة.

حرك المؤشر فوق النقطة لمعرفة اسم المحطة.

ثم انقر لمعرفة أرصاد وتوقعات الطقس.

لتغيير الخارطة: اضغط على الأزرار الخضراء مع رمز الصليب الأسود للتكبير. على الزر الأخضر مع شرطة للتصغير، أو على الأسهم الخضراء للخرائط المجاورة.


METAR-TAF: